sensor_id;sensor_type;location;lat;lon;timestamp;temperature;humidity
8099;DHT22;4092;47.876;9.372;2023-06-26T00:00:04;17.40;99.90
8099;DHT22;4092;47.876;9.372;2023-06-26T00:02:32;17.30;99.90
8099;DHT22;4092;47.876;9.372;2023-06-26T00:04:59;17.40;99.90
8099;DHT22;4092;47.876;9.372;2023-06-26T00:07:28;17.40;99.90
8099;DHT22;4092;47.876;9.372;2023-06-26T00:09:55;17.30;99.90
8099;DHT22;4092;47.876;9.372;2023-06-26T00:12:22;17.30;99.90
8099;DHT22;4092;47.876;9.372;2023-06-26T00:14:51;17.30;99.90
8099;DHT22;4092;47.876;9.372;2023-06-26T00:17:18;17.30;99.90
8099;DHT22;4092;47.876;9.372;2023-06-26T00:19:45;17.30;99.90
8099;DHT22;4092;47.876;9.372;2023-06-26T00:22:12;17.30;99.90
8099;DHT22;4092;47.876;9.372;2023-06-26T00:24:39;17.20;99.90
8099;DHT22;4092;47.876;9.372;2023-06-26T00:27:06;17.20;99.90
8099;DHT22;4092;47.876;9.372;2023-06-26T00:29:33;17.20;99.90
8099;DHT22;4092;47.876;9.372;2023-06-26T00:32:02;17.10;99.90
8099;DHT22;4092;47.876;9.372;2023-06-26T00:34:29;17.20;99.90
8099;DHT22;4092;47.876;9.372;2023-06-26T00:36:56;17.10;99.90
8099;DHT22;4092;47.876;9.372;2023-06-26T00:39:23;17.10;99.90
8099;DHT22;4092;47.876;9.372;2023-06-26T00:41:51;17.10;99.90
8099;DHT22;4092;47.876;9.372;2023-06-26T00:44:19;17.00;99.90
8099;DHT22;4092;47.876;9.372;2023-06-26T00:46:46;17.00;99.90
8099;DHT22;4092;47.876;9.372;2023-06-26T00:49:15;17.00;99.90
8099;DHT22;4092;47.876;9.372;2023-06-26T00:51:42;17.00;99.90
8099;DHT22;4092;47.876;9.372;2023-06-26T00:54:10;17.00;99.90
8099;DHT22;4092;47.876;9.372;2023-06-26T00:56:37;16.90;99.90
8099;DHT22;4092;47.876;9.372;2023-06-26T00:59:04;16.90;99.90
8099;DHT22;4092;47.876;9.372;2023-06-26T01:01:31;17.00;99.90
8099;DHT22;4092;47.876;9.372;2023-06-26T01:03:58;17.00;99.90
8099;DHT22;4092;47.876;9.372;2023-06-26T01:06:28;17.00;99.90
8099;DHT22;4092;47.876;9.372;2023-06-26T01:08:58;17.00;99.90
8099;DHT22;4092;47.876;9.372;2023-06-26T01:11:25;17.00;99.90
8099;DHT22;4092;47.876;9.372;2023-06-26T01:13:53;17.00;99.90
8099;DHT22;4092;47.876;9.372;2023-06-26T01:16:21;17.00;99.90
8099;DHT22;4092;47.876;9.372;2023-06-26T01:18:50;17.00;99.90
8099;DHT22;4092;47.876;9.372;2023-06-26T01:21:18;17.00;99.90
8099;DHT22;4092;47.876;9.372;2023-06-26T01:23:57;17.00;99.90
8099;DHT22;4092;47.876;9.372;2023-06-26T01:26:29;17.00;99.90
8099;DHT22;4092;47.876;9.372;2023-06-26T01:28:58;17.00;99.90
8099;DHT22;4092;47.876;9.372;2023-06-26T01:31:27;17.00;99.90
8099;DHT22;4092;47.876;9.372;2023-06-26T01:33:57;16.90;99.90
8099;DHT22;4092;47.876;9.372;2023-06-26T01:36:24;16.90;99.90
8099;DHT22;4092;47.876;9.372;2023-06-26T01:38:51;16.90;99.90
8099;DHT22;4092;47.876;9.372;2023-06-26T01:41:18;16.80;99.90
8099;DHT22;4092;47.876;9.372;2023-06-26T01:44:02;16.80;99.90
8099;DHT22;4092;47.876;9.372;2023-06-26T01:46:48;16.80;99.90
8099;DHT22;4092;47.876;9.372;2023-06-26T01:49:20;16.90;99.90
8099;DHT22;4092;47.876;9.372;2023-06-26T01:51:54;16.90;99.90
8099;DHT22;4092;47.876;9.372;2023-06-26T01:54:24;16.90;99.90
8099;DHT22;4092;47.876;9.372;2023-06-26T01:56:54;16.90;99.90
8099;DHT22;4092;47.876;9.372;2023-06-26T01:59:22;16.90;99.90
8099;DHT22;4092;47.876;9.372;2023-06-26T02:01:50;16.90;99.90
8099;DHT22;4092;47.876;9.372;2023-06-26T02:04:18;17.00;99.90
8099;DHT22;4092;47.876;9.372;2023-06-26T02:06:45;16.90;99.90
8099;DHT22;4092;47.876;9.372;2023-06-26T02:09:12;16.90;99.90
8099;DHT22;4092;47.876;9.372;2023-06-26T02:11:39;16.90;99.90
8099;DHT22;4092;47.876;9.372;2023-06-26T02:14:06;16.90;99.90
8099;DHT22;4092;47.876;9.372;2023-06-26T02:16:36;16.90;99.90
8099;DHT22;4092;47.876;9.372;2023-06-26T02:19:03;16.90;99.90
8099;DHT22;4092;47.876;9.372;2023-06-26T02:21:29;16.90;99.90
8099;DHT22;4092;47.876;9.372;2023-06-26T02:23:56;16.80;99.90
8099;DHT22;4092;47.876;9.372;2023-06-26T02:26:23;16.90;99.90
8099;DHT22;4092;47.876;9.372;2023-06-26T02:28:50;16.90;99.90
8099;DHT22;4092;47.876;9.372;2023-06-26T02:31:17;16.90;99.90
8099;DHT22;4092;47.876;9.372;2023-06-26T02:33:45;16.90;99.90
8099;DHT22;4092;47.876;9.372;2023-06-26T02:36:12;16.80;99.90
8099;DHT22;4092;47.876;9.372;2023-06-26T02:38:39;16.80;99.90
8099;DHT22;4092;47.876;9.372;2023-06-26T02:41:06;16.80;99.90
8099;DHT22;4092;47.876;9.372;2023-06-26T02:43:33;16.80;99.90
8099;DHT22;4092;47.876;9.372;2023-06-26T02:46:00;16.80;99.90
8099;DHT22;4092;47.876;9.372;2023-06-26T02:48:27;16.80;99.90
8099;DHT22;4092;47.876;9.372;2023-06-26T02:50:55;16.80;99.90
8099;DHT22;4092;47.876;9.372;2023-06-26T02:53:22;16.80;99.90
8099;DHT22;4092;47.876;9.372;2023-06-26T02:55:49;16.70;99.90
8099;DHT22;4092;47.876;9.372;2023-06-26T02:58:16;16.70;99.90
8099;DHT22;4092;47.876;9.372;2023-06-26T03:00:43;16.70;99.90
8099;DHT22;4092;47.876;9.372;2023-06-26T03:03:10;16.70;99.90
8099;DHT22;4092;47.876;9.372;2023-06-26T03:05:38;16.70;99.90
8099;DHT22;4092;47.876;9.372;2023-06-26T03:08:06;16.80;99.90
8099;DHT22;4092;47.876;9.372;2023-06-26T03:10:33;16.80;99.90
8099;DHT22;4092;47.876;9.372;2023-06-26T03:13:00;16.80;99.90
8099;DHT22;4092;47.876;9.372;2023-06-26T03:15:27;16.80;99.90
8099;DHT22;4092;47.876;9.372;2023-06-26T03:17:54;16.80;99.90
8099;DHT22;4092;47.876;9.372;2023-06-26T03:20:21;16.80;99.90
8099;DHT22;4092;47.876;9.372;2023-06-26T03:22:48;16.80;99.90
8099;DHT22;4092;47.876;9.372;2023-06-26T03:25:16;16.80;99.90
8099;DHT22;4092;47.876;9.372;2023-06-26T03:27:43;16.80;99.90
8099;DHT22;4092;47.876;9.372;2023-06-26T03:30:11;16.80;99.90
8099;DHT22;4092;47.876;9.372;2023-06-26T03:32:38;16.80;99.90
8099;DHT22;4092;47.876;9.372;2023-06-26T03:35:06;16.80;99.90
8099;DHT22;4092;47.876;9.372;2023-06-26T03:37:33;16.80;99.90
8099;DHT22;4092;47.876;9.372;2023-06-26T03:40:00;16.80;99.90
8099;DHT22;4092;47.876;9.372;2023-06-26T03:42:28;16.80;99.90
8099;DHT22;4092;47.876;9.372;2023-06-26T03:44:55;16.80;99.90
8099;DHT22;4092;47.876;9.372;2023-06-26T03:47:22;16.80;99.90
8099;DHT22;4092;47.876;9.372;2023-06-26T03:49:49;16.80;99.90
8099;DHT22;4092;47.876;9.372;2023-06-26T03:52:16;16.90;99.90
8099;DHT22;4092;47.876;9.372;2023-06-26T03:54:42;16.80;99.90
8099;DHT22;4092;47.876;9.372;2023-06-26T03:57:10;16.90;99.90
8099;DHT22;4092;47.876;9.372;2023-06-26T03:59:38;17.00;99.90
8099;DHT22;4092;47.876;9.372;2023-06-26T04:02:05;17.00;99.90
8099;DHT22;4092;47.876;9.372;2023-06-26T04:04:32;17.00;99.90
8099;DHT22;4092;47.876;9.372;2023-06-26T04:06:58;17.00;99.90
8099;DHT22;4092;47.876;9.372;2023-06-26T04:09:25;17.00;99.90
8099;DHT22;4092;47.876;9.372;2023-06-26T04:11:52;17.10;99.90
8099;DHT22;4092;47.876;9.372;2023-06-26T04:14:19;17.10;99.90
8099;DHT22;4092;47.876;9.372;2023-06-26T04:16:47;17.20;99.90
8099;DHT22;4092;47.876;9.372;2023-06-26T04:19:14;17.30;99.90
8099;DHT22;4092;47.876;9.372;2023-06-26T04:21:41;17.40;99.90
8099;DHT22;4092;47.876;9.372;2023-06-26T04:24:08;17.50;99.90
8099;DHT22;4092;47.876;9.372;2023-06-26T04:26:36;17.50;99.90
8099;DHT22;4092;47.876;9.372;2023-06-26T04:29:02;17.60;99.90
8099;DHT22;4092;47.876;9.372;2023-06-26T04:31:30;17.60;99.90
8099;DHT22;4092;47.876;9.372;2023-06-26T04:33:58;17.70;99.90
8099;DHT22;4092;47.876;9.372;2023-06-26T04:36:25;17.70;99.90
8099;DHT22;4092;47.876;9.372;2023-06-26T04:38:54;17.80;99.90
8099;DHT22;4092;47.876;9.372;2023-06-26T04:41:21;17.80;99.90
8099;DHT22;4092;47.876;9.372;2023-06-26T04:43:48;17.90;99.90
8099;DHT22;4092;47.876;9.372;2023-06-26T04:46:15;18.00;99.90
8099;DHT22;4092;47.876;9.372;2023-06-26T04:48:42;18.10;99.90
8099;DHT22;4092;47.876;9.372;2023-06-26T04:51:11;18.30;99.90
8099;DHT22;4092;47.876;9.372;2023-06-26T04:53:38;18.30;99.90
8099;DHT22;4092;47.876;9.372;2023-06-26T04:56:05;18.40;99.90
8099;DHT22;4092;47.876;9.372;2023-06-26T04:58:32;18.50;99.90
8099;DHT22;4092;47.876;9.372;2023-06-26T05:00:59;18.60;99.90
8099;DHT22;4092;47.876;9.372;2023-06-26T05:03:26;18.70;99.90
8099;DHT22;4092;47.876;9.372;2023-06-26T05:05:53;18.80;99.90
8099;DHT22;4092;47.876;9.372;2023-06-26T05:08:23;18.90;99.90
8099;DHT22;4092;47.876;9.372;2023-06-26T05:10:51;18.90;99.90
8099;DHT22;4092;47.876;9.372;2023-06-26T05:13:23;19.00;99.90
8099;DHT22;4092;47.876;9.372;2023-06-26T05:15:50;19.10;99.90
8099;DHT22;4092;47.876;9.372;2023-06-26T05:18:17;19.20;99.90
8099;DHT22;4092;47.876;9.372;2023-06-26T05:20:44;19.20;99.90
8099;DHT22;4092;47.876;9.372;2023-06-26T05:23:12;19.30;99.90
8099;DHT22;4092;47.876;9.372;2023-06-26T05:25:40;19.40;99.90
8099;DHT22;4092;47.876;9.372;2023-06-26T05:28:08;19.40;99.90
8099;DHT22;4092;47.876;9.372;2023-06-26T05:30:37;19.50;99.90
8099;DHT22;4092;47.876;9.372;2023-06-26T05:33:05;19.60;99.90
8099;DHT22;4092;47.876;9.372;2023-06-26T05:35:34;19.60;99.90
8099;DHT22;4092;47.876;9.372;2023-06-26T05:38:03;19.70;99.90
8099;DHT22;4092;47.876;9.372;2023-06-26T05:40:30;19.70;99.90
8099;DHT22;4092;47.876;9.372;2023-06-26T05:42:59;19.90;99.90
8099;DHT22;4092;47.876;9.372;2023-06-26T05:45:26;19.90;99.90
8099;DHT22;4092;47.876;9.372;2023-06-26T05:47:53;20.00;99.90
8099;DHT22;4092;47.876;9.372;2023-06-26T05:50:20;20.00;99.90
8099;DHT22;4092;47.876;9.372;2023-06-26T05:52:47;20.10;99.90
8099;DHT22;4092;47.876;9.372;2023-06-26T05:55:15;20.10;99.90
8099;DHT22;4092;47.876;9.372;2023-06-26T05:57:42;20.20;99.90
8099;DHT22;4092;47.876;9.372;2023-06-26T06:00:12;20.30;99.90
8099;DHT22;4092;47.876;9.372;2023-06-26T06:02:40;20.40;99.90
8099;DHT22;4092;47.876;9.372;2023-06-26T06:05:07;20.50;99.90
8099;DHT22;4092;47.876;9.372;2023-06-26T06:07:35;20.60;99.90
8099;DHT22;4092;47.876;9.372;2023-06-26T06:10:03;20.60;99.90
8099;DHT22;4092;47.876;9.372;2023-06-26T06:12:30;20.70;99.90
8099;DHT22;4092;47.876;9.372;2023-06-26T06:14:57;20.70;99.90
8099;DHT22;4092;47.876;9.372;2023-06-26T06:17:25;20.80;99.90
8099;DHT22;4092;47.876;9.372;2023-06-26T06:19:52;20.90;99.90
8099;DHT22;4092;47.876;9.372;2023-06-26T06:22:19;20.90;99.90
8099;DHT22;4092;47.876;9.372;2023-06-26T06:24:48;21.00;99.90
8099;DHT22;4092;47.876;9.372;2023-06-26T06:27:15;21.00;99.90
8099;DHT22;4092;47.876;9.372;2023-06-26T06:29:42;21.20;99.90
8099;DHT22;4092;47.876;9.372;2023-06-26T06:32:09;21.20;99.90
8099;DHT22;4092;47.876;9.372;2023-06-26T06:34:37;21.20;99.90
8099;DHT22;4092;47.876;9.372;2023-06-26T06:37:04;21.30;99.90
8099;DHT22;4092;47.876;9.372;2023-06-26T06:39:31;21.40;99.90
8099;DHT22;4092;47.876;9.372;2023-06-26T06:41:58;21.50;99.90
8099;DHT22;4092;47.876;9.372;2023-06-26T06:44:25;21.50;99.90
8099;DHT22;4092;47.876;9.372;2023-06-26T06:46:52;21.60;99.90
8099;DHT22;4092;47.876;9.372;2023-06-26T06:49:18;21.70;99.90
8099;DHT22;4092;47.876;9.372;2023-06-26T06:51:47;21.60;99.90
8099;DHT22;4092;47.876;9.372;2023-06-26T06:54:15;21.70;99.90
8099;DHT22;4092;47.876;9.372;2023-06-26T06:56:42;21.70;99.90
8099;DHT22;4092;47.876;9.372;2023-06-26T06:59:09;21.80;99.90
8099;DHT22;4092;47.876;9.372;2023-06-26T07:01:36;21.90;99.90
8099;DHT22;4092;47.876;9.372;2023-06-26T07:04:04;21.90;99.90
8099;DHT22;4092;47.876;9.372;2023-06-26T07:06:30;22.00;99.90
8099;DHT22;4092;47.876;9.372;2023-06-26T07:08:59;22.00;99.90
8099;DHT22;4092;47.876;9.372;2023-06-26T07:11:26;22.10;99.90
8099;DHT22;4092;47.876;9.372;2023-06-26T07:13:54;22.10;99.90
8099;DHT22;4092;47.876;9.372;2023-06-26T07:16:21;22.20;99.90
8099;DHT22;4092;47.876;9.372;2023-06-26T07:18:48;22.20;99.90
8099;DHT22;4092;47.876;9.372;2023-06-26T07:21:17;22.30;99.90
8099;DHT22;4092;47.876;9.372;2023-06-26T07:23:44;22.30;99.90
8099;DHT22;4092;47.876;9.372;2023-06-26T07:26:14;22.40;99.90
8099;DHT22;4092;47.876;9.372;2023-06-26T07:28:41;22.60;99.90
8099;DHT22;4092;47.876;9.372;2023-06-26T07:31:08;22.70;99.90
8099;DHT22;4092;47.876;9.372;2023-06-26T07:33:35;22.70;99.90
8099;DHT22;4092;47.876;9.372;2023-06-26T07:36:02;22.90;99.90
8099;DHT22;4092;47.876;9.372;2023-06-26T07:38:29;23.00;99.90
8099;DHT22;4092;47.876;9.372;2023-06-26T07:40:56;23.00;99.90
8099;DHT22;4092;47.876;9.372;2023-06-26T07:43:24;23.00;99.90
8099;DHT22;4092;47.876;9.372;2023-06-26T07:45:51;23.00;99.90
8099;DHT22;4092;47.876;9.372;2023-06-26T07:48:19;23.10;99.90
8099;DHT22;4092;47.876;9.372;2023-06-26T07:50:46;23.10;99.90
8099;DHT22;4092;47.876;9.372;2023-06-26T07:53:12;23.10;99.90
8099;DHT22;4092;47.876;9.372;2023-06-26T07:55:39;23.10;99.90
8099;DHT22;4092;47.876;9.372;2023-06-26T07:58:07;23.20;99.90
8099;DHT22;4092;47.876;9.372;2023-06-26T08:00:36;23.20;99.90
8099;DHT22;4092;47.876;9.372;2023-06-26T08:03:03;23.30;99.90
8099;DHT22;4092;47.876;9.372;2023-06-26T08:05:30;23.40;99.90
8099;DHT22;4092;47.876;9.372;2023-06-26T08:07:57;23.50;99.90
8099;DHT22;4092;47.876;9.372;2023-06-26T08:10:25;23.50;99.90
8099;DHT22;4092;47.876;9.372;2023-06-26T08:12:52;23.40;99.90
8099;DHT22;4092;47.876;9.372;2023-06-26T08:15:19;23.40;99.90
8099;DHT22;4092;47.876;9.372;2023-06-26T08:17:47;23.50;99.90
8099;DHT22;4092;47.876;9.372;2023-06-26T08:20:16;23.50;99.90
8099;DHT22;4092;47.876;9.372;2023-06-26T08:22:45;23.60;99.90
8099;DHT22;4092;47.876;9.372;2023-06-26T08:25:13;23.80;99.90
8099;DHT22;4092;47.876;9.372;2023-06-26T08:27:40;23.90;99.90
8099;DHT22;4092;47.876;9.372;2023-06-26T08:30:08;23.80;99.90
8099;DHT22;4092;47.876;9.372;2023-06-26T08:32:35;23.80;99.90
8099;DHT22;4092;47.876;9.372;2023-06-26T08:35:03;23.70;99.90
8099;DHT22;4092;47.876;9.372;2023-06-26T08:37:30;23.80;99.90
8099;DHT22;4092;47.876;9.372;2023-06-26T08:39:58;23.80;99.90
8099;DHT22;4092;47.876;9.372;2023-06-26T08:42:25;23.80;99.90
8099;DHT22;4092;47.876;9.372;2023-06-26T08:44:52;23.90;99.90
8099;DHT22;4092;47.876;9.372;2023-06-26T08:47:19;24.00;99.90
8099;DHT22;4092;47.876;9.372;2023-06-26T08:49:50;24.10;99.90
8099;DHT22;4092;47.876;9.372;2023-06-26T08:52:23;24.30;99.90
8099;DHT22;4092;47.876;9.372;2023-06-26T08:54:56;24.30;99.90
8099;DHT22;4092;47.876;9.372;2023-06-26T08:57:26;24.40;99.90
8099;DHT22;4092;47.876;9.372;2023-06-26T08:59:53;24.40;99.90
8099;DHT22;4092;47.876;9.372;2023-06-26T09:02:21;24.50;99.90
8099;DHT22;4092;47.876;9.372;2023-06-26T09:04:48;24.60;99.90
8099;DHT22;4092;47.876;9.372;2023-06-26T09:07:15;24.70;99.90
8099;DHT22;4092;47.876;9.372;2023-06-26T09:09:44;24.90;99.90
8099;DHT22;4092;47.876;9.372;2023-06-26T09:12:11;24.90;99.90
8099;DHT22;4092;47.876;9.372;2023-06-26T09:14:39;25.00;99.90
8099;DHT22;4092;47.876;9.372;2023-06-26T09:17:06;25.00;99.90
8099;DHT22;4092;47.876;9.372;2023-06-26T09:19:36;25.10;99.90
8099;DHT22;4092;47.876;9.372;2023-06-26T09:22:04;25.20;99.90
8099;DHT22;4092;47.876;9.372;2023-06-26T09:24:31;25.30;99.90
8099;DHT22;4092;47.876;9.372;2023-06-26T09:27:02;25.20;99.90
8099;DHT22;4092;47.876;9.372;2023-06-26T09:29:29;25.20;99.90
8099;DHT22;4092;47.876;9.372;2023-06-26T09:31:56;25.30;99.90
8099;DHT22;4092;47.876;9.372;2023-06-26T09:34:30;25.20;99.90
8099;DHT22;4092;47.876;9.372;2023-06-26T09:36:58;25.30;99.90
8099;DHT22;4092;47.876;9.372;2023-06-26T09:39:30;25.30;99.90
8099;DHT22;4092;47.876;9.372;2023-06-26T09:41:58;25.40;99.90
8099;DHT22;4092;47.876;9.372;2023-06-26T09:44:26;25.50;99.90
8099;DHT22;4092;47.876;9.372;2023-06-26T09:46:55;25.60;99.90
8099;DHT22;4092;47.876;9.372;2023-06-26T09:49:23;25.80;99.90
8099;DHT22;4092;47.876;9.372;2023-06-26T09:51:51;25.80;99.90
8099;DHT22;4092;47.876;9.372;2023-06-26T09:54:21;25.80;99.90
8099;DHT22;4092;47.876;9.372;2023-06-26T09:56:48;25.80;99.90
8099;DHT22;4092;47.876;9.372;2023-06-26T09:59:15;25.90;99.90
8099;DHT22;4092;47.876;9.372;2023-06-26T10:01:45;26.10;99.90
8099;DHT22;4092;47.876;9.372;2023-06-26T10:04:12;26.20;99.90
8099;DHT22;4092;47.876;9.372;2023-06-26T10:06:46;26.20;99.90
8099;DHT22;4092;47.876;9.372;2023-06-26T10:09:14;26.30;99.90
8099;DHT22;4092;47.876;9.372;2023-06-26T10:11:47;26.40;99.90
8099;DHT22;4092;47.876;9.372;2023-06-26T10:14:15;26.60;99.90
8099;DHT22;4092;47.876;9.372;2023-06-26T10:16:44;26.60;99.90
8099;DHT22;4092;47.876;9.372;2023-06-26T10:19:14;26.70;99.90
8099;DHT22;4092;47.876;9.372;2023-06-26T10:21:42;26.80;99.90
8099;DHT22;4092;47.876;9.372;2023-06-26T10:24:10;26.80;99.90
8099;DHT22;4092;47.876;9.372;2023-06-26T10:26:44;26.90;99.90
8099;DHT22;4092;47.876;9.372;2023-06-26T10:29:12;26.90;99.90
8099;DHT22;4092;47.876;9.372;2023-06-26T10:31:44;27.10;99.90
8099;DHT22;4092;47.876;9.372;2023-06-26T10:34:13;27.20;99.90
8099;DHT22;4092;47.876;9.372;2023-06-26T10:36:41;27.30;99.90
8099;DHT22;4092;47.876;9.372;2023-06-26T10:39:08;27.40;99.90
8099;DHT22;4092;47.876;9.372;2023-06-26T10:41:39;27.40;99.90
8099;DHT22;4092;47.876;9.372;2023-06-26T10:44:09;27.50;99.20
8099;DHT22;4092;47.876;9.372;2023-06-26T10:46:50;27.50;99.90
8099;DHT22;4092;47.876;9.372;2023-06-26T10:49:18;27.60;98.30
8099;DHT22;4092;47.876;9.372;2023-06-26T10:51:49;27.60;99.50
8099;DHT22;4092;47.876;9.372;2023-06-26T10:54:18;27.70;99.90
8099;DHT22;4092;47.876;9.372;2023-06-26T10:56:46;27.80;99.20
8099;DHT22;4092;47.876;9.372;2023-06-26T10:59:15;27.90;98.90
8099;DHT22;4092;47.876;9.372;2023-06-26T11:01:43;28.00;99.90
8099;DHT22;4092;47.876;9.372;2023-06-26T11:04:13;27.90;99.20
8099;DHT22;4092;47.876;9.372;2023-06-26T11:06:45;28.00;99.20
8099;DHT22;4092;47.876;9.372;2023-06-26T11:09:17;28.10;99.40
8099;DHT22;4092;47.876;9.372;2023-06-26T11:11:58;28.20;98.90
8099;DHT22;4092;47.876;9.372;2023-06-26T11:14:27;28.30;98.10
8099;DHT22;4092;47.876;9.372;2023-06-26T11:16:55;28.30;98.60
8099;DHT22;4092;47.876;9.372;2023-06-26T11:19:25;28.30;96.60
8099;DHT22;4092;47.876;9.372;2023-06-26T11:21:56;28.30;97.40
8099;DHT22;4092;47.876;9.372;2023-06-26T11:24:24;28.30;97.70
8099;DHT22;4092;47.876;9.372;2023-06-26T11:26:51;28.40;97.30
8099;DHT22;4092;47.876;9.372;2023-06-26T11:29:19;28.40;97.50
8099;DHT22;4092;47.876;9.372;2023-06-26T11:31:46;28.40;93.60
8099;DHT22;4092;47.876;9.372;2023-06-26T11:34:13;28.40;94.40
8099;DHT22;4092;47.876;9.372;2023-06-26T11:36:43;28.50;93.90
8099;DHT22;4092;47.876;9.372;2023-06-26T11:39:12;28.60;94.30
8099;DHT22;4092;47.876;9.372;2023-06-26T11:41:40;28.80;94.30
8099;DHT22;4092;47.876;9.372;2023-06-26T11:44:09;28.60;93.10
8099;DHT22;4092;47.876;9.372;2023-06-26T11:46:36;28.20;95.10
8099;DHT22;4092;47.876;9.372;2023-06-26T11:49:04;28.00;95.30
8099;DHT22;4092;47.876;9.372;2023-06-26T11:51:31;28.10;94.80
8099;DHT22;4092;47.876;9.372;2023-06-26T11:54:01;28.20;94.40
8099;DHT22;4092;47.876;9.372;2023-06-26T11:56:29;28.50;96.10
8099;DHT22;4092;47.876;9.372;2023-06-26T11:58:58;28.90;94.20
8099;DHT22;4092;47.876;9.372;2023-06-26T12:01:27;29.10;94.60
8099;DHT22;4092;47.876;9.372;2023-06-26T12:03:59;29.20;94.90
8099;DHT22;4092;47.876;9.372;2023-06-26T12:06:29;29.00;94.40
8099;DHT22;4092;47.876;9.372;2023-06-26T12:08:56;28.80;94.80
8099;DHT22;4092;47.876;9.372;2023-06-26T12:11:25;29.10;94.50
8099;DHT22;4092;47.876;9.372;2023-06-26T12:13:54;29.20;93.70
8099;DHT22;4092;47.876;9.372;2023-06-26T12:16:21;29.10;94.10
8099;DHT22;4092;47.876;9.372;2023-06-26T12:18:48;29.30;94.00
8099;DHT22;4092;47.876;9.372;2023-06-26T12:21:28;29.30;92.90
8099;DHT22;4092;47.876;9.372;2023-06-26T12:23:58;29.10;92.90
8099;DHT22;4092;47.876;9.372;2023-06-26T12:26:28;28.90;94.10
8099;DHT22;4092;47.876;9.372;2023-06-26T12:29:01;28.50;93.80
8099;DHT22;4092;47.876;9.372;2023-06-26T12:31:28;28.30;93.60
8099;DHT22;4092;47.876;9.372;2023-06-26T12:33:56;28.30;94.10
8099;DHT22;4092;47.876;9.372;2023-06-26T12:36:23;28.60;95.40
8099;DHT22;4092;47.876;9.372;2023-06-26T12:38:52;28.80;94.20
8099;DHT22;4092;47.876;9.372;2023-06-26T12:41:19;28.90;92.30
8099;DHT22;4092;47.876;9.372;2023-06-26T12:43:48;29.20;94.20
8099;DHT22;4092;47.876;9.372;2023-06-26T12:46:15;29.40;93.90
8099;DHT22;4092;47.876;9.372;2023-06-26T12:48:43;29.50;93.90
8099;DHT22;4092;47.876;9.372;2023-06-26T12:51:12;29.40;92.90
8099;DHT22;4092;47.876;9.372;2023-06-26T12:53:40;29.00;93.20
8099;DHT22;4092;47.876;9.372;2023-06-26T12:56:07;28.60;93.40
8099;DHT22;4092;47.876;9.372;2023-06-26T12:58:34;28.20;92.80
8099;DHT22;4092;47.876;9.372;2023-06-26T13:01:04;27.90;93.10
8099;DHT22;4092;47.876;9.372;2023-06-26T13:03:36;27.70;94.30
8099;DHT22;4092;47.876;9.372;2023-06-26T13:06:03;27.60;95.00
8099;DHT22;4092;47.876;9.372;2023-06-26T13:08:30;27.40;95.40
8099;DHT22;4092;47.876;9.372;2023-06-26T13:10:57;27.20;95.50
8099;DHT22;4092;47.876;9.372;2023-06-26T13:13:24;27.00;96.10
8099;DHT22;4092;47.876;9.372;2023-06-26T13:15:51;26.80;99.90
8099;DHT22;4092;47.876;9.372;2023-06-26T13:18:20;26.30;99.90
8099;DHT22;4092;47.876;9.372;2023-06-26T13:20:47;25.60;99.90
8099;DHT22;4092;47.876;9.372;2023-06-26T13:23:14;24.70;99.90
8099;DHT22;4092;47.876;9.372;2023-06-26T13:25:42;23.50;99.90
8099;DHT22;4092;47.876;9.372;2023-06-26T13:28:09;22.60;99.90
8099;DHT22;4092;47.876;9.372;2023-06-26T13:30:36;21.90;99.90
8099;DHT22;4092;47.876;9.372;2023-06-26T13:33:03;21.50;99.90
8099;DHT22;4092;47.876;9.372;2023-06-26T13:35:31;21.20;99.90
8099;DHT22;4092;47.876;9.372;2023-06-26T13:37:58;21.10;99.90
8099;DHT22;4092;47.876;9.372;2023-06-26T13:40:25;21.10;99.90
8099;DHT22;4092;47.876;9.372;2023-06-26T13:42:52;21.10;99.90
8099;DHT22;4092;47.876;9.372;2023-06-26T13:45:19;21.10;99.90
8099;DHT22;4092;47.876;9.372;2023-06-26T13:47:46;21.20;99.90
8099;DHT22;4092;47.876;9.372;2023-06-26T13:50:13;21.30;99.90
8099;DHT22;4092;47.876;9.372;2023-06-26T13:52:41;21.30;99.90
8099;DHT22;4092;47.876;9.372;2023-06-26T13:55:08;21.30;99.90
8099;DHT22;4092;47.876;9.372;2023-06-26T13:57:35;21.40;99.90
8099;DHT22;4092;47.876;9.372;2023-06-26T14:00:08;22.00;99.90
8099;DHT22;4092;47.876;9.372;2023-06-26T14:02:35;22.70;99.90
8099;DHT22;4092;47.876;9.372;2023-06-26T14:05:02;23.50;99.90
8099;DHT22;4092;47.876;9.372;2023-06-26T14:07:29;24.20;99.90
8099;DHT22;4092;47.876;9.372;2023-06-26T14:09:58;24.70;99.90
8099;DHT22;4092;47.876;9.372;2023-06-26T14:12:25;25.00;99.90
8099;DHT22;4092;47.876;9.372;2023-06-26T14:14:52;25.40;99.90
8099;DHT22;4092;47.876;9.372;2023-06-26T14:17:19;25.80;99.90
8099;DHT22;4092;47.876;9.372;2023-06-26T14:19:45;26.10;99.90
8099;DHT22;4092;47.876;9.372;2023-06-26T14:22:12;26.50;99.90
8099;DHT22;4092;47.876;9.372;2023-06-26T14:24:39;26.90;99.90
8099;DHT22;4092;47.876;9.372;2023-06-26T14:27:08;27.40;99.90
8099;DHT22;4092;47.876;9.372;2023-06-26T14:29:35;27.70;99.90
8099;DHT22;4092;47.876;9.372;2023-06-26T14:32:03;28.10;99.90
8099;DHT22;4092;47.876;9.372;2023-06-26T14:34:30;28.40;99.90
8099;DHT22;4092;47.876;9.372;2023-06-26T14:36:57;28.60;99.90
8099;DHT22;4092;47.876;9.372;2023-06-26T14:39:24;28.70;99.90
8099;DHT22;4092;47.876;9.372;2023-06-26T14:41:51;28.80;99.90
8099;DHT22;4092;47.876;9.372;2023-06-26T14:44:19;28.70;99.90
8099;DHT22;4092;47.876;9.372;2023-06-26T14:46:46;28.40;99.90
8099;DHT22;4092;47.876;9.372;2023-06-26T14:49:13;28.00;99.90
8099;DHT22;4092;47.876;9.372;2023-06-26T14:51:40;27.60;99.90
8099;DHT22;4092;47.876;9.372;2023-06-26T14:54:07;27.60;99.90
8099;DHT22;4092;47.876;9.372;2023-06-26T14:56:34;27.40;99.90
8099;DHT22;4092;47.876;9.372;2023-06-26T14:59:01;27.30;99.90
8099;DHT22;4092;47.876;9.372;2023-06-26T15:01:29;27.20;99.90
8099;DHT22;4092;47.876;9.372;2023-06-26T15:03:56;27.00;99.90
8099;DHT22;4092;47.876;9.372;2023-06-26T15:06:23;26.70;99.90
8099;DHT22;4092;47.876;9.372;2023-06-26T15:08:50;26.80;99.90
8099;DHT22;4092;47.876;9.372;2023-06-26T15:11:18;26.70;99.90
8099;DHT22;4092;47.876;9.372;2023-06-26T15:13:45;26.60;99.90
8099;DHT22;4092;47.876;9.372;2023-06-26T15:16:11;26.30;99.90
8099;DHT22;4092;47.876;9.372;2023-06-26T15:18:40;26.00;99.90
8099;DHT22;4092;47.876;9.372;2023-06-26T15:21:07;25.80;99.90
8099;DHT22;4092;47.876;9.372;2023-06-26T15:23:34;25.70;99.90
8099;DHT22;4092;47.876;9.372;2023-06-26T15:26:01;25.80;99.90
8099;DHT22;4092;47.876;9.372;2023-06-26T15:28:28;26.10;99.90
8099;DHT22;4092;47.876;9.372;2023-06-26T15:30:55;26.40;99.90
8099;DHT22;4092;47.876;9.372;2023-06-26T15:33:22;26.80;99.90
8099;DHT22;4092;47.876;9.372;2023-06-26T15:35:50;27.20;99.90
8099;DHT22;4092;47.876;9.372;2023-06-26T15:38:17;27.70;99.90
8099;DHT22;4092;47.876;9.372;2023-06-26T15:40:44;28.10;99.90
8099;DHT22;4092;47.876;9.372;2023-06-26T15:43:11;28.20;99.90
8099;DHT22;4092;47.876;9.372;2023-06-26T15:45:38;27.80;99.90
8099;DHT22;4092;47.876;9.372;2023-06-26T15:48:05;27.40;99.90
8099;DHT22;4092;47.876;9.372;2023-06-26T15:50:32;27.10;99.90
8099;DHT22;4092;47.876;9.372;2023-06-26T15:53:02;26.70;99.90
8099;DHT22;4092;47.876;9.372;2023-06-26T15:55:29;26.70;99.90
8099;DHT22;4092;47.876;9.372;2023-06-26T15:57:56;27.00;99.90
8099;DHT22;4092;47.876;9.372;2023-06-26T16:00:24;27.10;99.90
8099;DHT22;4092;47.876;9.372;2023-06-26T16:02:50;27.00;99.90
8099;DHT22;4092;47.876;9.372;2023-06-26T16:05:17;26.70;99.90